CheckWX is a tool to help pilots better visualize weather data.  It is not intended as a substitute for an official pre-flight weather briefing.

08:13:27 UTC

KIKW METAR
Jack Barstow Airport
Midland, Michigan, USA
Current

18 mins ago

KIKW 220755Z AUTO 00000KT 7SM CLR M08/M10 A3035 RMK AO2 T10851101
Observed
Feb-22 @ 07:55 UTC
Visibility
7 SM
Flight Rules
VFR
Cloud Levels
  • Clear skies
Temperature
-9°C / 16°F
Dewpoint
-10°C / 14°F
Humidity
93%
Altimeter
30.35" Hg
Pressure
1027.82 hPa
Previous

38 mins ago

KIKW 220735Z AUTO 00000KT 7SM CLR M08/M10 A3034 RMK AO2 T10841100
Observed
Feb-22 @ 07:35 UTC
Visibility
7 SM
Flight Rules
VFR
Cloud Levels
  • Clear skies
Temperature
-8°C / 18°F
Dewpoint
-10°C / 14°F
Humidity
86%
Altimeter
30.34" Hg
Pressure
1027.42 hPa
Previous

57 mins ago

KIKW 220716Z AUTO 00000KT 10SM CLR M08/M09 A3033 RMK AO2 T10811095
Observed
Feb-22 @ 07:16 UTC
Visibility
10 SM
Flight Rules
VFR
Cloud Levels
  • Clear skies
Temperature
-8°C / 18°F
Dewpoint
-10°C / 14°F
Humidity
86%
Altimeter
30.33" Hg
Pressure
1027.12 hPa